Time;durP1;ratioP1;P1;durP2;ratioP2;P2;SDS_P1;SDS_P2;PMS_P1;PMS_P2;Temp;Humidity;BMP_temperature;BMP_pressure;BME280_temperature;BME280_humidity;BME280_pressure;Samples;Min_cycle;Max_cycle;Signal;HPM_P1;HPM_P2
2022/05/19 00:02:09;;;;;;;17.98;11.13;;;;;;;;;;10426035;28;20045;-72
2022/05/19 00:07:11;;;;;;;17.67;11.38;;;;;;;;;;10448543;28;20258;-73
2022/05/19 00:12:18;;;;;;;19.02;11.63;;;;;;;;;;10405490;28;20482;-73
2022/05/19 00:17:19;;;;;;;25.85;17.20;;;;;;;;;;10412256;28;20076;-73
2022/05/19 00:22:21;;;;;;;24.00;17.10;;;;;;;;;;10425022;28;20037;-73
2022/05/19 00:27:22;;;;;;;30.98;23.80;;;;;;;;;;10449326;28;20451;-73
2022/05/19 00:32:24;;;;;;;33.80;24.95;;;;;;;;;;10415242;28;20254;-74
2022/05/19 00:37:25;;;;;;;39.00;27.23;;;;;;;;;;10437822;28;20049;-73
2022/05/19 00:42:44;;;;;;;37.70;26.23;;;;;;;;;;10419359;28;20060;-73
2022/05/19 00:47:49;;;;;;;41.45;29.17;;;;;;;;;;10425209;28;20155;-73
2022/05/19 00:52:52;;;;;;;45.08;31.77;;;;;;;;;;10449765;28;20483;-73
2022/05/19 00:57:58;;;;;;;42.10;30.63;;;;;;;;;;10443617;28;20049;-73
2022/05/19 01:03:00;;;;;;;43.38;31.17;;;;;;;;;;10461365;28;20504;-73
2022/05/19 01:08:08;;;;;;;39.45;29.10;;;;;;;;;;10444320;28;20076;-73
2022/05/19 01:13:11;;;;;;;42.22;28.73;;;;;;;;;;10433724;28;20068;-73
2022/05/19 01:18:14;;;;;;;48.55;34.83;;;;;;;;;;10445008;28;20068;-73
2022/05/19 01:23:21;;;;;;;51.08;35.40;;;;;;;;;;10409392;28;20049;-72
2022/05/19 01:28:23;;;;;;;53.63;39.17;;;;;;;;;;10426357;28;20068;-73
2022/05/19 01:33:24;;;;;;;60.47;40.35;;;;;;;;;;10434047;28;20431;-72
2022/05/19 01:38:28;;;;;;;61.78;43.92;;;;;;;;;;10430318;28;20125;-74
2022/05/19 01:43:51;;;;;;;66.68;46.55;;;;;;;;;;10417995;28;20162;-73
2022/05/19 01:48:55;;;;;;;64.07;47.88;;;;;;;;;;10436522;28;20045;-74
2022/05/19 01:54:15;;;;;;;75.97;49.40;;;;;;;;;;10392677;28;20532;-72
2022/05/19 01:59:17;;;;;;;;;;;;;;;;;;10419674;28;20068;-73
2022/05/19 02:04:22;;;;;;;63.83;47.28;;;;;;;;;;10440761;28;20296;-73
2022/05/19 02:09:37;;;;;;;68.00;47.45;;;;;;;;;;10437286;28;20045;-73
2022/05/19 02:14:50;;;;;;;66.75;48.03;;;;;;;;;;10427784;28;20045;-73
2022/05/19 02:19:54;;;;;;;73.15;51.20;;;;;;;;;;10424738;28;20037;-74
2022/05/19 02:24:57;;;;;;;79.13;56.97;;;;;;;;;;10442946;28;20045;-73
2022/05/19 02:30:04;;;;;;;76.28;54.33;;;;;;;;;;10435022;28;20082;-73
2022/05/19 02:35:06;;;;;;;73.93;54.08;;;;;;;;;;10455364;28;20135;-73
2022/05/19 02:40:09;;;;;;;72.63;52.42;;;;;;;;;;10425579;28;20601;-73
2022/05/19 02:45:11;;;;;;;81.95;56.00;;;;;;;;;;10442423;28;20051;-73
2022/05/19 02:50:13;;;;;;;76.88;53.75;;;;;;;;;;10406754;28;1111208;-71
2022/05/19 02:55:16;;;;;;;77.95;56.70;;;;;;;;;;10434811;28;20124;-73
2022/05/19 03:00:20;;;;;;;81.32;57.38;;;;;;;;;;10440365;28;20503;-73
2022/05/19 03:05:23;;;;;;;82.25;59.90;;;;;;;;;;10440995;28;20136;-72
2022/05/19 03:10:25;;;;;;;90.10;62.88;;;;;;;;;;10439803;28;20045;-74
2022/05/19 03:15:26;;;;;;;89.65;63.50;;;;;;;;;;10441535;28;20041;-72
2022/05/19 03:20:28;;;;;;;99.40;66.32;;;;;;;;;;10424506;28;20104;-72
2022/05/19 03:25:29;;;;;;;95.57;66.90;;;;;;;;;;10439421;28;20041;-73
2022/05/19 03:30:31;;;;;;;98.80;69.88;;;;;;;;;;10428556;28;20132;-73
2022/05/19 03:35:32;;;;;;;105.68;72.85;;;;;;;;;;10453114;28;20131;-72
2022/05/19 03:40:34;;;;;;;111.70;73.30;;;;;;;;;;10436925;28;20465;-72
2022/05/19 03:45:35;;;;;;;101.47;71.72;;;;;;;;;;10423788;28;20175;-73
2022/05/19 03:50:38;;;;;;;107.03;72.30;;;;;;;;;;10423090;28;20449;-73
2022/05/19 03:55:40;;;;;;;110.95;74.95;;;;;;;;;;10433228;28;20241;-74
2022/05/19 04:00:41;;;;;;;112.97;76.18;;;;;;;;;;10455449;28;20052;-73
2022/05/19 04:05:43;;;;;;;109.70;75.10;;;;;;;;;;10456386;28;20580;-73
2022/05/19 04:10:47;;;;;;;117.53;78.13;;;;;;;;;;10437843;28;20087;-73
2022/05/19 04:15:48;;;;;;;111.22;75.97;;;;;;;;;;10414485;28;20045;-72
2022/05/19 04:20:49;;;;;;;119.18;78.78;;;;;;;;;;10450822;28;20106;-73
2022/05/19 04:25:51;;;;;;;111.45;78.60;;;;;;;;;;10445560;28;20051;-73
2022/05/19 04:30:56;;;;;;;127.20;88.45;;;;;;;;;;10446313;28;20052;-73
2022/05/19 04:35:57;;;;;;;122.10;81.50;;;;;;;;;;10443203;28;20049;-72
2022/05/19 04:41:03;;;;;;;113.22;75.43;;;;;;;;;;10429960;28;20105;-69
2022/05/19 04:46:04;;;;;;;103.78;73.25;;;;;;;;;;10421545;28;20034;-70
2022/05/19 04:51:06;;;;;;;106.95;72.45;;;;;;;;;;10424900;28;20060;-71
2022/05/19 04:56:07;;;;;;;98.97;70.90;;;;;;;;;;10419192;28;20423;-69
2022/05/19 05:01:09;;;;;;;102.03;71.22;;;;;;;;;;10449873;28;20496;-70
2022/05/19 05:06:11;;;;;;;104.20;70.50;;;;;;;;;;10447331;28;20060;-74
2022/05/19 05:11:12;;;;;;;97.00;70.60;;;;;;;;;;10447187;28;20053;-72
2022/05/19 05:16:14;;;;;;;96.53;71.10;;;;;;;;;;10438316;28;20033;-72
2022/05/19 05:21:15;;;;;;;102.50;70.57;;;;;;;;;;10447254;28;20148;-72
2022/05/19 05:26:17;;;;;;;94.72;67.85;;;;;;;;;;10438046;28;20614;-72
2022/05/19 05:31:18;;;;;;;83.57;59.42;;;;;;;;;;10436194;28;20053;-71
2022/05/19 05:36:20;;;;;;;71.28;52.50;;;;;;;;;;10455555;28;20132;-73
2022/05/19 05:41:21;;;;;;;66.95;49.78;;;;;;;;;;10419487;28;20049;-73
2022/05/19 05:46:23;;;;;;;67.38;46.20;;;;;;;;;;10440545;28;20053;-73
2022/05/19 05:51:25;;;;;;;49.00;36.53;;;;;;;;;;10441666;28;20478;-73
2022/05/19 05:56:26;;;;;;;43.35;33.20;;;;;;;;;;10450177;28;20041;-73
2022/05/19 06:01:28;;;;;;;30.95;24.50;;;;;;;;;;10443850;28;20052;-72
2022/05/19 06:06:30;;;;;;;24.08;16.70;;;;;;;;;;10439786;28;20119;-71
2022/05/19 06:11:31;;;;;;;21.92;11.23;;;;;;;;;;10432009;28;20456;-73
2022/05/19 06:16:32;;;;;;;13.35;7.95;;;;;;;;;;10402592;28;20053;-69
2022/05/19 06:21:36;;;;;;;14.45;7.50;;;;;;;;;;10436446;28;20140;-72
2022/05/19 06:26:39;;;;;;;11.77;6.50;;;;;;;;;;10440233;28;20548;-70
2022/05/19 06:31:41;;;;;;;11.30;6.15;;;;;;;;;;10442133;28;20051;-70
2022/05/19 06:36:42;;;;;;;11.65;5.93;;;;;;;;;;10436531;28;20048;-70
2022/05/19 06:42:02;;;;;;;9.27;4.88;;;;;;;;;;10430929;28;20059;-71
2022/05/19 06:47:13;;;;;;;11.80;4.28;;;;;;;;;;10415254;28;20049;-69
2022/05/19 06:52:19;;;;;;;8.13;3.60;;;;;;;;;;10428142;28;20124;-68
2022/05/19 06:57:22;;;;;;;13.25;3.63;;;;;;;;;;10439458;28;20055;-76
2022/05/19 07:02:24;;;;;;;9.60;3.13;;;;;;;;;;10449110;28;20500;-69
2022/05/19 07:07:26;;;;;;;7.78;3.13;;;;;;;;;;10447822;28;20072;-71
2022/05/19 07:12:28;;;;;;;7.03;2.95;;;;;;;;;;10448061;28;20052;-72
2022/05/19 07:17:29;;;;;;;6.05;2.90;;;;;;;;;;10415953;28;20053;-73
2022/05/19 07:22:33;;;;;;;8.50;3.55;;;;;;;;;;10444050;28;20041;-70
2022/05/19 07:27:34;;;;;;;7.68;3.28;;;;;;;;;;10437282;28;20040;-71
2022/05/19 07:32:36;;;;;;;8.43;3.25;;;;;;;;;;10453040;28;20033;-70
2022/05/19 07:37:38;;;;;;;8.75;3.20;;;;;;;;;;10443099;28;20106;-72
2022/05/19 07:42:40;;;;;;;7.47;3.13;;;;;;;;;;10431907;28;20041;-73
2022/05/19 07:47:42;;;;;;;7.28;3.25;;;;;;;;;;10427262;28;20046;-69
2022/05/19 07:52:44;;;;;;;8.20;4.13;;;;;;;;;;10440382;28;20045;-72
2022/05/19 07:57:47;;;;;;;9.82;4.30;;;;;;;;;;10441400;28;20048;-73
2022/05/19 08:02:49;;;;;;;12.02;4.38;;;;;;;;;;10453839;28;20116;-70
2022/05/19 08:07:50;;;;;;;11.20;4.10;;;;;;;;;;10420282;28;20524;-71
2022/05/19 08:18:17;;;;;;;8.38;4.10;;;;;;;;;;10438086;28;20597;-72
2022/05/19 08:23:21;;;;;;;10.05;4.75;;;;;;;;;;10420965;28;20044;-70
2022/05/19 08:28:28;;;;;;;8.10;3.92;;;;;;;;;;10440394;28;20255;-71
2022/05/19 08:33:31;;;;;;;8.65;4.32;;;;;;;;;;10458771;28;20036;-72
2022/05/19 08:38:33;;;;;;;12.52;4.90;;;;;;;;;;10438088;28;20049;-70
2022/05/19 08:43:54;;;;;;;8.65;4.47;;;;;;;;;;10431422;28;20069;-71
2022/05/19 08:48:59;;;;;;;9.30;4.18;;;;;;;;;;10399868;28;20103;-71
2022/05/19 08:54:05;;;;;;;9.82;4.70;;;;;;;;;;10434606;28;20708;-70
2022/05/19 08:59:06;;;;;;;9.45;3.70;;;;;;;;;;10442553;28;20416;-72
2022/05/19 09:04:10;;;;;;;9.57;4.35;;;;;;;;;;10453063;28;20043;-70
2022/05/19 09:09:12;;;;;;;12.27;4.93;;;;;;;;;;10437016;28;20041;-71
2022/05/19 09:14:20;;;;;;;10.82;4.72;;;;;;;;;;10416088;28;20037;-70
2022/05/19 09:19:24;;;;;;;10.20;5.05;;;;;;;;;;10430730;28;20049;-71
2022/05/19 09:24:25;;;;;;;8.85;4.38;;;;;;;;;;10429081;28;20049;-70
2022/05/19 09:29:34;;;;;;;10.32;4.82;;;;;;;;;;10433993;28;20048;-71
2022/05/19 09:34:36;;;;;;;8.13;4.13;;;;;;;;;;10449145;28;20049;-71
2022/05/19 09:39:44;;;;;;;11.27;4.93;;;;;;;;;;10442450;28;20048;-72
2022/05/19 09:44:51;;;;;;;9.82;4.35;;;;;;;;;;10436553;28;20079;-70
2022/05/19 09:49:54;;;;;;;10.50;4.85;;;;;;;;;;10440497;28;20598;-71
2022/05/19 09:54:58;;;;;;;9.77;4.97;;;;;;;;;;10435173;28;20040;-72
2022/05/19 10:00:03;;;;;;;8.07;4.90;;;;;;;;;;10435528;28;20542;-72
2022/05/19 10:05:20;;;;;;;9.35;4.90;;;;;;;;;;10443711;28;20051;-72
2022/05/19 10:10:29;;;;;;;11.85;5.22;;;;;;;;;;10441045;28;20400;-72
2022/05/19 10:15:40;;;;;;;10.13;4.25;;;;;;;;;;10436662;28;20068;-71
2022/05/19 10:20:48;;;;;;;8.27;4.35;;;;;;;;;;10442098;28;20080;-71
2022/05/19 10:26:02;;;;;;;8.70;4.82;;;;;;;;;;10423036;28;20131;-71
2022/05/19 10:31:07;;;;;;;9.23;4.40;;;;;;;;;;10436840;28;20128;-70
2022/05/19 10:36:17;;;;;;;14.45;5.15;;;;;;;;;;10432808;28;20406;-73
2022/05/19 10:41:35;;;;;;;9.23;4.70;;;;;;;;;;10421949;28;20037;-72
2022/05/19 10:46:45;;;;;;;8.93;4.22;;;;;;;;;;10440035;28;20115;-74
2022/05/19 10:51:47;;;;;;;10.02;5.03;;;;;;;;;;10419189;28;20053;-72
2022/05/19 10:56:55;;;;;;;11.85;4.93;;;;;;;;;;10426068;28;20045;-75
2022/05/19 11:01:59;;;;;;;11.73;5.80;;;;;;;;;;10441602;28;20127;-74
2022/05/19 11:07:00;;;;;;;7.90;4.75;;;;;;;;;;10451892;28;20519;-75
2022/05/19 11:12:02;;;;;;;8.40;4.35;;;;;;;;;;10439688;28;20072;-76
2022/05/19 11:17:13;;;;;;;9.65;5.38;;;;;;;;;;10426240;28;20048;-75
2022/05/19 11:22:16;;;;;;;12.13;4.80;;;;;;;;;;10444800;28;20047;-76
2022/05/19 11:27:19;;;;;;;9.90;4.85;;;;;;;;;;10427362;28;20411;-73
2022/05/19 11:32:27;;;;;;;11.70;7.43;;;;;;;;;;10429309;28;20489;-73
2022/05/19 11:37:38;;;;;;;10.93;5.00;;;;;;;;;;10437561;28;20037;-76
2022/05/19 11:42:56;;;;;;;9.23;4.63;;;;;;;;;;10436735;28;20049;-74
2022/05/19 11:58:45;;;;;;;11.88;6.00;;;;;;;;;;10442465;28;20055;-76
2022/05/19 12:03:50;;;;;;;9.77;5.40;;;;;;;;;;10439653;28;20150;-72
2022/05/19 12:09:06;;;;;;;15.27;6.95;;;;;;;;;;10426128;28;20053;-74
2022/05/19 12:14:10;;;;;;;15.07;5.65;;;;;;;;;;10437837;28;20063;-76
2022/05/19 12:19:29;;;;;;;10.50;6.30;;;;;;;;;;10436815;28;20061;-72
2022/05/19 12:24:35;;;;;;;11.95;6.07;;;;;;;;;;10429892;28;20049;-72
2022/05/19 12:29:53;;;;;;;10.88;6.80;;;;;;;;;;10429469;28;20078;-72
2022/05/19 12:35:02;;;;;;;11.30;7.70;;;;;;;;;;10453831;28;20037;-72
2022/05/19 12:40:13;;;;;;;14.90;7.07;;;;;;;;;;10442955;28;20057;-72
2022/05/19 12:45:20;;;;;;;14.00;6.88;;;;;;;;;;10436469;28;20045;-73
2022/05/19 12:50:23;;;;;;;14.07;6.80;;;;;;;;;;10435224;28;20056;-73
2022/05/19 12:55:24;;;;;;;19.17;7.82;;;;;;;;;;10423129;28;20040;-73
2022/05/19 13:00:36;;;;;;;11.98;6.70;;;;;;;;;;10443845;28;20159;-72
2022/05/19 13:05:46;;;;;;;9.70;6.40;;;;;;;;;;10445752;28;20040;-74
2022/05/19 13:10:50;;;;;;;16.38;7.15;;;;;;;;;;10435399;28;20053;-73
2022/05/19 13:15:53;;;;;;;11.65;7.13;;;;;;;;;;10436845;28;20075;-74
2022/05/19 13:21:05;;;;;;;11.27;6.03;;;;;;;;;;10418410;28;20046;-71
2022/05/19 13:26:12;;;;;;;11.45;6.53;;;;;;;;;;10429477;28;20072;-78
2022/05/19 13:31:56;;;;;;;13.43;6.70;;;;;;;;;;10431509;28;20052;-75
2022/05/19 13:36:59;;;;;;;10.52;6.57;;;;;;;;;;10421483;28;20064;-74
2022/05/19 13:42:09;;;;;;;10.73;6.47;;;;;;;;;;10404060;28;20631;-70
2022/05/19 13:47:12;;;;;;;10.73;6.78;;;;;;;;;;10415477;28;20052;-76
2022/05/19 13:52:14;;;;;;;10.93;7.07;;;;;;;;;;10413704;28;20103;-73
2022/05/19 13:57:23;;;;;;;13.63;7.63;;;;;;;;;;10433365;28;20418;-72
2022/05/19 14:02:30;;;;;;;11.77;7.45;;;;;;;;;;10439379;28;20073;-73
2022/05/19 14:07:32;;;;;;;10.50;6.50;;;;;;;;;;10430159;28;20524;-74
2022/05/19 14:12:34;;;;;;;11.57;6.35;;;;;;;;;;10428822;28;20049;-73
2022/05/19 14:17:40;;;;;;;16.70;8.10;;;;;;;;;;10432406;28;20144;-76
2022/05/19 14:22:42;;;;;;;11.25;8.65;;;;;;;;;;10439226;28;20072;-74
2022/05/19 14:27:44;;;;;;;23.35;11.30;;;;;;;;;;10425492;28;20558;-73
2022/05/19 14:32:50;;;;;;;25.35;12.27;;;;;;;;;;10446239;28;20139;-72
2022/05/19 14:37:53;;;;;;;22.88;12.60;;;;;;;;;;10435827;28;20053;-72
2022/05/19 14:43:17;;;;;;;19.20;13.35;;;;;;;;;;10400349;28;20048;-72
2022/05/19 14:48:19;;;;;;;23.50;13.93;;;;;;;;;;10394964;28;20044;-72
2022/05/19 14:53:22;;;;;;;18.58;13.38;;;;;;;;;;10431857;28;20652;-72
2022/05/19 14:58:25;;;;;;;21.02;13.65;;;;;;;;;;10413876;28;20048;-71
2022/05/19 15:03:27;;;;;;;23.70;14.48;;;;;;;;;;10432242;28;20111;-71
2022/05/19 15:08:29;;;;;;;18.77;11.93;;;;;;;;;;10415736;28;20505;-70
2022/05/19 15:13:32;;;;;;;10.75;5.50;;;;;;;;;;10424516;28;20048;-70
2022/05/19 15:18:36;;;;;;;11.00;5.07;;;;;;;;;;10414861;28;20444;-69
2022/05/19 15:23:38;;;;;;;11.85;5.10;;;;;;;;;;10418200;28;20452;-70
2022/05/19 15:28:41;;;;;;;12.30;5.82;;;;;;;;;;10416709;28;20119;-71
2022/05/19 15:33:42;;;;;;;9.95;5.90;;;;;;;;;;10423376;28;20047;-72
2022/05/19 15:38:44;;;;;;;13.60;7.20;;;;;;;;;;10419456;28;20048;-71
2022/05/19 15:43:45;;;;;;;13.15;6.65;;;;;;;;;;10426396;28;20429;-71
2022/05/19 15:48:48;;;;;;;13.95;5.97;;;;;;;;;;10429917;28;20041;-71
2022/05/19 15:53:49;;;;;;;16.67;6.93;;;;;;;;;;10433790;28;20132;-72
2022/05/19 15:58:52;;;;;;;14.65;7.18;;;;;;;;;;10417698;28;20053;-72
2022/05/19 16:03:54;;;;;;;13.45;7.32;;;;;;;;;;10424211;28;20041;-70
2022/05/19 16:08:55;;;;;;;11.60;6.82;;;;;;;;;;10421253;28;20128;-70
2022/05/19 16:13:56;;;;;;;10.50;6.68;;;;;;;;;;10423258;28;20038;-70
2022/05/19 16:18:58;;;;;;;13.18;6.93;;;;;;;;;;10416506;28;20080;-70
2022/05/19 16:24:03;;;;;;;12.18;6.70;;;;;;;;;;10403484;28;20056;-69
2022/05/19 16:29:04;;;;;;;12.55;7.20;;;;;;;;;;10427281;28;21023;-70
2022/05/19 16:34:06;;;;;;;13.43;7.95;;;;;;;;;;10426992;28;20056;-69
2022/05/19 16:39:09;;;;;;;12.30;8.02;;;;;;;;;;10420410;28;20524;-70
2022/05/19 16:44:10;;;;;;;16.73;7.55;;;;;;;;;;10416502;28;20061;-70
2022/05/19 16:49:12;;;;;;;12.02;8.38;;;;;;;;;;10421672;28;20052;-69
2022/05/19 16:59:33;;;;;;;12.90;8.02;;;;;;;;;;10419093;28;20049;-69
2022/05/19 17:04:34;;;;;;;10.93;6.85;;;;;;;;;;10426632;28;20045;-71
2022/05/19 17:09:56;;;;;;;12.10;8.20;;;;;;;;;;10415923;28;20509;-71
2022/05/19 17:14:57;;;;;;;13.40;8.43;;;;;;;;;;10428166;28;20398;-72
2022/05/19 17:19:59;;;;;;;13.52;7.93;;;;;;;;;;10426670;28;20041;-73
2022/05/19 17:25:00;;;;;;;13.95;8.10;;;;;;;;;;10429542;28;20041;-72
2022/05/19 17:30:03;;;;;;;13.02;8.60;;;;;;;;;;10414686;28;20052;-73
2022/05/19 17:35:04;;;;;;;10.43;7.68;;;;;;;;;;10438800;28;20429;-72
2022/05/19 17:40:07;;;;;;;12.55;7.55;;;;;;;;;;10422782;28;20057;-72
2022/05/19 17:45:10;;;;;;;10.60;7.40;;;;;;;;;;10410853;28;20049;-70
2022/05/19 17:50:13;;;;;;;10.35;7.07;;;;;;;;;;10435382;28;20063;-69
2022/05/19 17:55:14;;;;;;;11.95;8.48;;;;;;;;;;10426260;28;20075;-71
2022/05/19 18:00:17;;;;;;;15.73;9.00;;;;;;;;;;10413517;28;20067;-71
2022/05/19 18:05:18;;;;;;;11.38;8.23;;;;;;;;;;10439642;28;20036;-72
2022/05/19 18:10:22;;;;;;;12.55;8.68;;;;;;;;;;10411378;28;20048;-71
2022/05/19 18:20:44;;;;;;;11.23;8.48;;;;;;;;;;10416929;28;20041;-70
2022/05/19 18:25:47;;;;;;;12.88;9.48;;;;;;;;;;10435022;28;20049;-71
2022/05/19 18:30:50;;;;;;;12.98;9.07;;;;;;;;;;10421108;28;20075;-68
2022/05/19 18:35:52;;;;;;;14.07;10.40;;;;;;;;;;10454769;28;20131;-71
2022/05/19 18:46:14;;;;;;;14.50;10.80;;;;;;;;;;10438046;28;20417;-71
2022/05/19 18:51:15;;;;;;;15.73;11.27;;;;;;;;;;10437603;28;20058;-72
2022/05/19 18:56:18;;;;;;;19.70;11.38;;;;;;;;;;10444761;28;20408;-72
2022/05/19 19:01:19;;;;;;;15.38;10.95;;;;;;;;;;10434964;28;20045;-71
2022/05/19 19:06:23;;;;;;;18.52;11.18;;;;;;;;;;10431758;28;20507;-71
2022/05/19 19:11:24;;;;;;;16.20;12.02;;;;;;;;;;10416945;28;20405;-72
2022/05/19 19:16:27;;;;;;;16.75;11.68;;;;;;;;;;10440590;28;20567;-72
2022/05/19 19:21:36;;;;;;;15.05;12.05;;;;;;;;;;10422395;28;20068;-72
2022/05/19 19:26:38;;;;;;;15.73;12.18;;;;;;;;;;10437941;28;20061;-71
2022/05/19 19:31:40;;;;;;;16.13;13.40;;;;;;;;;;10435247;28;20045;-72
2022/05/19 19:36:45;;;;;;;16.50;12.90;;;;;;;;;;10458881;28;20036;-72
2022/05/19 19:41:47;;;;;;;18.30;14.05;;;;;;;;;;10420510;28;20131;-72
2022/05/19 19:46:48;;;;;;;19.70;13.73;;;;;;;;;;10448185;28;20041;-72
2022/05/19 19:52:00;;;;;;;19.83;13.95;;;;;;;;;;10399191;28;20501;-72
2022/05/19 19:57:06;;;;;;;17.48;13.32;;;;;;;;;;10429697;28;20053;-72
2022/05/19 20:02:08;;;;;;;18.13;14.00;;;;;;;;;;10430787;28;20057;-71
2022/05/19 20:07:10;;;;;;;17.13;14.05;;;;;;;;;;10441080;28;20033;-71
2022/05/19 20:12:15;;;;;;;17.80;14.15;;;;;;;;;;10429530;28;20040;-72
2022/05/19 20:17:16;;;;;;;19.23;14.10;;;;;;;;;;10440848;28;20041;-71
2022/05/19 20:22:18;;;;;;;21.80;14.63;;;;;;;;;;10435558;28;20100;-70
2022/05/19 20:27:19;;;;;;;20.65;13.57;;;;;;;;;;10439219;28;20756;-71
2022/05/19 20:32:22;;;;;;;15.93;13.70;;;;;;;;;;10416704;28;20471;-71
2022/05/19 20:37:24;;;;;;;20.48;14.15;;;;;;;;;;10420428;28;20567;-71
2022/05/19 20:42:25;;;;;;;16.15;12.63;;;;;;;;;;10417844;28;20059;-71
2022/05/19 20:47:27;;;;;;;19.88;12.90;;;;;;;;;;10437879;28;20576;-71
2022/05/19 20:52:29;;;;;;;17.65;11.63;;;;;;;;;;10430476;28;20041;-72
2022/05/19 20:57:31;;;;;;;16.38;11.25;;;;;;;;;;10432445;28;20132;-70
2022/05/19 21:02:33;;;;;;;12.70;9.63;;;;;;;;;;10421408;28;20500;-70
2022/05/19 21:07:36;;;;;;;21.55;15.25;;;;;;;;;;10433116;28;20413;-72
2022/05/19 21:12:38;;;;;;;20.90;15.68;;;;;;;;;;10427227;28;20049;-71
2022/05/19 21:17:39;;;;;;;21.20;17.17;;;;;;;;;;10437562;28;20060;-71
2022/05/19 21:22:41;;;;;;;28.35;22.25;;;;;;;;;;10440523;28;20045;-71
2022/05/19 21:27:43;;;;;;;30.13;24.35;;;;;;;;;;10440207;28;20057;-71
2022/05/19 21:32:45;;;;;;;30.88;24.48;;;;;;;;;;10442506;28;20041;-71
2022/05/19 21:37:46;;;;;;;31.73;25.70;;;;;;;;;;10427122;28;20055;-72
2022/05/19 21:42:48;;;;;;;30.45;24.90;;;;;;;;;;10438166;28;20119;-71
2022/05/19 21:47:50;;;;;;;36.20;26.48;;;;;;;;;;10427456;28;20503;-71
2022/05/19 21:58:12;;;;;;;31.55;25.08;;;;;;;;;;10400981;28;20053;-71
2022/05/19 22:03:17;;;;;;;29.63;22.95;;;;;;;;;;10444744;28;20037;-71
2022/05/19 22:08:18;;;;;;;29.95;20.30;;;;;;;;;;10414359;28;20156;-71
2022/05/19 22:13:19;;;;;;;26.13;20.65;;;;;;;;;;10425109;28;20047;-72
2022/05/19 22:18:21;;;;;;;26.58;19.85;;;;;;;;;;10431817;28;20504;-71
2022/05/19 22:23:22;;;;;;;26.38;20.40;;;;;;;;;;10426152;28;20033;-72
2022/05/19 22:28:24;;;;;;;27.48;18.65;;;;;;;;;;10431304;28;20057;-72
2022/05/19 22:33:26;;;;;;;26.45;18.30;;;;;;;;;;10448565;28;20132;-71
2022/05/19 22:38:27;;;;;;;24.00;17.95;;;;;;;;;;10425786;28;20059;-72
2022/05/19 22:43:29;;;;;;;25.73;18.15;;;;;;;;;;10423386;28;20041;-71
2022/05/19 22:48:30;;;;;;;26.77;18.65;;;;;;;;;;10404030;28;20049;-71
2022/05/19 22:53:32;;;;;;;30.23;22.35;;;;;;;;;;10406756;28;20528;-72
2022/05/19 22:58:33;;;;;;;32.97;24.42;;;;;;;;;;10411511;28;20053;-71
2022/05/19 23:03:35;;;;;;;39.72;24.83;;;;;;;;;;10442341;28;20125;-71
2022/05/19 23:08:36;;;;;;;29.48;23.10;;;;;;;;;;10431898;28;20052;-72
2022/05/19 23:13:38;;;;;;;35.33;25.83;;;;;;;;;;10432237;28;20037;-72
2022/05/19 23:18:39;;;;;;;31.90;24.40;;;;;;;;;;10428019;28;20045;-72
2022/05/19 23:23:40;;;;;;;35.35;25.98;;;;;;;;;;10439017;28;20041;-70
2022/05/19 23:28:42;;;;;;;38.40;25.05;;;;;;;;;;10443620;28;20645;-71
2022/05/19 23:33:44;;;;;;;30.85;22.48;;;;;;;;;;10436521;28;20132;-72
2022/05/19 23:38:45;;;;;;;32.78;22.25;;;;;;;;;;10439100;28;20416;-72
2022/05/19 23:43:47;;;;;;;28.33;21.65;;;;;;;;;;10438509;28;20416;-72
2022/05/19 23:48:48;;;;;;;28.92;21.42;;;;;;;;;;10430908;28;20049;-72
2022/05/19 23:53:49;;;;;;;28.65;22.08;;;;;;;;;;10430980;28;20421;-72
2022/05/19 23:58:51;;;;;;;38.90;24.70;;;;;;;;;;10409784;28;20063;-72
